Date,TemperatureHighF,TemperatureAvgF,TemperatureLowF,DewpointHighF,DewpointAvgF,DewpointLowF,HumidityHigh,HumidityAvg,HumidityLow,PressureMaxIn,PressureMinIn,WindSpeedMaxMPH,WindSpeedAvgMPH,GustSpeedMaxMPH,PrecipitationSumIn
2013-1-1,23,19,9,20,14,4,88,82,75,30.21,30.07,9,5,12,0.01
2013-1-2,23,14,6,16,8,2,84,79,69,30.27,30.17,13,5,18,0.00
2013-1-3,31,23,16,27,19,11,89,83,78,30.32,30.16,12,8,19,0.00
2013-1-4,32,22,12,27,18,8,86,82,75,30.34,30.26,16,9,22,0.00
2013-1-5,35,29,20,33,25,16,96,86,79,30.28,30.03,14,9,20,0.00
2013-1-6,35,28,18,32,24,15,89,84,79,30.35,29.96,19,10,25,0.01
2013-1-7,35,26,16,29,22,14,90,85,75,30.38,30.15,20,9,27,0.01
2013-1-8,42,33,26,35,28,23,88,83,69,30.20,30.10,14,10,18,0.00
2013-1-9,50,40,30,39,33,25,85,76,57,30.48,30.09,13,7,20,0.00
2013-1-10,48,37,28,46,32,24,95,83,67,30.48,29.85,15,4,21,0.38
2013-1-11,56,52,48,54,49,46,95,89,81,29.85,29.70,18,12,27,0.48
2013-1-12,57,47,32,51,43,30,92,87,76,29.90,29.76,16,10,25,0.47
2013-1-13,32,26,17,30,23,12,93,88,80,30.29,29.77,15,9,21,0.48
2013-1-14,23,18,15,17,14,10,87,82,78,30.47,30.27,8,3,13,0.00
2013-1-15,29,22,14,23,18,11,89,84,73,30.42,30.11,8,2,13,0.00
2013-1-16,36,29,20,30,24,18,90,80,61,30.11,29.92,15,6,20,0.00
2013-1-17,34,30,21,29,24,17,89,78,65,30.41,30.04,15,6,20,0.00
2013-1-18,38,30,21,30,24,17,88,80,65,30.45,30.05,24,14,33,0.00
2013-1-19,51,40,34,38,33,29,83,76,60,30.05,29.80,21,14,30,0.00
2013-1-20,38,23,18,32,14,10,80,68,61,30.29,29.94,23,11,32,0.00
2013-1-21,19,13,6,14,4,-3,79,67,47,30.32,30.17,20,12,30,0.00
2013-1-22,16,10,3,3,-1,-3,79,63,44,30.43,30.31,13,8,19,0.00
2013-1-23,28,19,10,15,8,2,76,64,53,30.36,30.11,17,4,25,0.00
2013-1-24,24,17,8,10,5,0,74,60,45,30.62,30.27,16,6,25,0.00
2013-1-25,33,24,19,24,16,5,89,73,49,30.36,30.01,13,6,18,0.00
2013-1-26,31,22,12,18,14,8,83,70,47,30.39,30.14,9,3,14,0.00
2013-1-27,40,30,21,38,25,16,94,82,69,30.37,29.96,20,11,27,0.06
2013-1-28,54,48,40,53,47,38,95,94,93,29.97,29.83,18,12,24,0.06
2013-1-29,60,56,52,57,54,49,97,93,88,29.83,29.32,22,15,31,0.70
2013-1-30,52,40,23,50,38,18,95,90,81,29.65,29.22,24,15,35,0.96
2013-1-31,24,17,8,19,11,1,88,76,71,30.20,29.65,21,16,30,0.03
2013-2-1,20,12,4,13,5,-2,85,71,60,30.43,30.20,17,10,27,0.00
2013-2-2,28,21,13,24,17,5,89,84,73,30.21,29.99,14,9,23,0.00
2013-2-3,26,20,9,21,15,5,91,82,66,30.09,29.98,19,6,28,0.00
2013-2-4,39,29,21,32,24,17,87,81,72,30.06,29.77,18,9,23,0.00
2013-2-5,37,31,25,33,27,22,97,87,83,30.06,29.80,17,7,23,0.00
2013-2-6,39,34,29,33,28,25,89,81,73,30.24,30.06,13,5,17,0.00
2013-2-7,52,38,31,43,34,28,93,84,68,30.10,29.79,17,8,24,0.17
2013-2-8,34,30,26,32,27,23,91,87,83,30.35,29.88,18,10,26,0.15
2013-2-9,40,32,29,33,27,24,90,81,73,30.37,30.07,12,5,17,0.00
2013-2-10,51,42,34,48,39,29,93,88,77,30.08,29.57,26,15,33,0.37
2013-2-11,48,36,30,44,29,25,87,76,70,30.06,29.58,25,15,39,0.01
2013-2-12,32,29,26,27,25,23,90,86,81,30.11,29.91,8,3,11,0.00
2013-2-13,48,35,28,36,30,25,92,83,60,29.91,29.72,12,4,17,0.00
2013-2-14,43,36,32,37,32,29,89,83,75,29.96,29.72,19,10,26,0.00
2013-2-15,34,31,24,30,24,16,90,77,51,30.16,29.96,15,9,20,0.00
2013-2-16,26,21,16,18,13,8,89,71,60,30.17,30.11,13,9,19,0.00
2013-2-17,34,23,12,23,14,5,80,67,50,30.23,30.02,13,4,19,0.00
2013-2-18,52,40,30,44,34,21,92,79,68,30.02,29.47,29,18,41,0.45
2013-2-19,32,22,17,29,16,10,89,77,70,30.17,29.63,26,19,37,0.36
2013-2-20,26,18,9,18,12,4,86,76,67,30.36,30.19,17,8,25,0.00
2013-2-21,29,24,16,27,20,12,92,84,77,30.35,29.88,13,4,21,0.00
2013-2-22,35,32,26,33,29,22,94,90,82,29.97,29.79,15,8,20,0.10
2013-2-23,28,25,20,23,20,17,89,82,75,29.98,29.93,12,6,18,0.02
2013-2-24,37,28,17,29,22,14,97,81,64,30.13,29.98,5,1,8,0.01
2013-2-25,43,34,25,34,28,22,89,79,64,30.12,29.79,13,4,18,0.01
2013-2-26,34,34,33,32,31,28,94,90,80,29.79,29.36,17,7,27,0.74
2013-2-27,33,32,32,31,30,29,95,93,90,29.70,29.47,14,9,20,0.03
2013-2-28,37,33,31,33,30,27,93,89,83,30.01,29.69,13,9,19,0.01
2013-3-1,31,30,27,29,26,24,92,88,84,30.12,29.98,15,10,22,0.01
2013-3-2,30,27,22,26,23,16,90,83,75,30.16,30.09,14,10,21,0.00
2013-3-3,34,26,18,23,18,14,89,73,50,30.14,30.06,8,3,13,0.00
2013-3-4,35,31,25,29,25,20,84,78,67,30.09,29.89,13,3,17,0.00
2013-3-5,35,32,29,33,29,26,97,89,82,29.89,29.70,15,5,23,0.09
2013-3-6,31,28,27,28,26,24,93,90,88,30.29,29.88,20,12,31,0.02
2013-3-7,36,30,26,29,25,23,90,83,69,30.40,30.29,7,2,11,0.04
2013-3-8,43,33,23,32,27,20,90,80,63,30.46,30.28,8,2,11,0.02
2013-3-9,48,40,32,40,34,28,89,78,69,30.29,29.81,16,10,21,0.01
2013-3-10,59,52,47,50,45,38,91,77,67,29.82,29.60,19,13,28,0.11
2013-3-11,51,40,33,49,37,29,92,90,86,29.84,29.56,20,11,27,0.10
2013-3-12,40,33,29,33,28,22,90,80,68,30.04,29.84,20,12,28,0.01
2013-3-13,34,28,24,23,21,19,89,75,59,30.34,30.04,18,12,28,0.00
2013-3-14,37,30,23,31,26,19,92,84,67,30.34,30.10,9,4,15,0.00
2013-3-15,53,40,30,46,36,27,91,85,72,30.10,29.62,13,4,18,0.01
2013-3-16,44,37,32,40,33,27,94,87,77,30.06,29.57,17,7,22,0.01
2013-3-17,40,34,31,30,27,25,85,77,64,30.13,29.88,11,5,16,0.00
2013-3-18,39,34,27,36,31,20,94,89,75,29.89,29.60,18,8,27,0.01
2013-3-19,40,30,22,24,20,14,79,66,45,30.11,29.86,21,14,29,0.01
2013-3-20,29,25,19,22,15,10,86,65,46,30.12,30.03,21,13,29,0.00
2013-3-21,35,24,13,19,14,8,85,65,42,30.07,29.99,14,4,21,0.00
2013-3-22,44,32,20,25,18,15,85,59,33,30.06,29.98,5,1,10,0.00
2013-3-23,47,37,31,27,25,20,80,62,43,30.06,29.90,10,3,16,0.00
2013-3-24,33,31,29,29,27,25,94,86,77,29.92,29.49,16,11,25,0.00
2013-3-25,34,31,27,31,28,25,93,89,83,30.05,29.70,18,14,26,0.03
2013-3-26,37,32,25,30,27,22,90,82,63,30.26,30.05,11,7,15,0.01
2013-3-27,40,34,26,30,26,23,88,76,55,30.34,30.26,9,4,13,0.00
2013-3-28,47,36,25,34,28,21,85,73,54,30.36,30.27,4,1,7,0.00
2013-3-29,54,43,33,38,33,28,88,68,45,30.29,30.18,5,1,10,0.00
2013-3-30,56,46,33,42,36,-100,86,73,53,30.19,29.84,12,6,19,0.00
2013-3-31,61,50,40,47,42,32,92,76,52,29.85,29.71,18,9,26,0.00
2013-4-1,43,37,29,32,24,19,77,61,38,30.16,29.85,17,9,24,0.00
2013-4-2,46,34,23,22,19,15,85,58,28,30.29,30.15,15,5,20,0.00
2013-4-3,48,37,24,23,20,16,81,54,30,30.41,30.27,7,2,15,0.00
2013-4-4,58,44,30,31,24,20,76,50,24,30.29,29.97,6,1,15,0.00
2013-4-5,58,45,35,38,29,21,82,56,27,30.12,29.96,10,5,17,0.00
2013-4-6,71,55,38,42,35,26,70,49,33,30.07,29.65,29,16,41,0.00
2013-4-7,71,60,46,45,42,38,83,54,30,29.88,29.65,23,6,33,0.01
2013-4-8,74,63,52,59,54,41,90,75,53,29.87,29.68,21,12,29,0.08
2013-4-9,77,67,58,61,58,53,85,73,54,29.87,29.77,29,12,40,0.01
2013-4-10,70,57,44,64,53,42,94,88,74,29.80,29.58,20,9,26,2.16
2013-4-11,60,50,40,58,48,35,95,92,82,29.75,29.54,15,8,22,1.33
2013-4-12,43,40,37,37,35,31,85,82,76,29.89,29.59,18,12,25,0.01
2013-4-13,49,42,37,40,35,31,89,75,58,29.98,29.88,16,8,22,0.00
2013-4-14,72,56,41,54,45,37,88,69,42,29.95,29.66,22,9,36,0.01
2013-4-15,65,58,49,60,53,46,92,84,66,29.90,29.70,23,12,31,0.13
2013-4-16,51,48,44,47,44,39,93,87,75,30.16,29.85,13,7,19,0.85
2013-4-17,71,53,45,67,49,39,94,87,77,30.16,29.72,18,7,28,0.20
2013-4-18,69,60,44,65,58,37,95,90,83,29.71,29.48,23,13,32,2.35
2013-4-19,43,38,35,38,33,30,90,80,73,29.96,29.54,24,16,32,0.81
2013-4-20,46,38,32,33,29,26,85,71,50,30.37,29.96,10,4,24,0.01
2013-4-21,54,43,33,37,32,27,80,65,47,30.47,30.30,12,4,19,0.00
2013-4-22,66,53,37,46,38,31,78,59,35,30.30,30.01,12,5,17,0.00
2013-4-23,60,54,41,54,48,39,93,81,65,30.02,29.76,17,9,26,0.51
2013-4-24,48,41,36,39,36,33,92,81,57,30.17,29.83,16,10,21,0.64
2013-4-25,53,45,36,37,33,29,89,66,39,30.31,30.13,19,9,28,0.01
2013-4-26,64,51,39,48,41,33,84,70,51,30.36,30.25,14,7,21,0.00
2013-4-27,63,54,45,51,46,41,93,78,47,30.27,29.92,14,3,17,0.27
2013-4-28,59,56,53,55,53,51,95,92,86,29.92,29.80,9,2,13,0.48
2013-4-29,70,60,48,59,54,46,94,81,61,29.92,29.77,17,8,23,0.03
2013-4-30,80,67,56,65,58,51,85,73,53,29.91,29.80,16,12,23,0.00
2013-5-1,81,70,57,61,56,53,88,65,39,30.06,29.90,13,6,18,0.00
2013-5-2,79,65,47,63,56,43,87,73,51,30.06,29.96,15,5,23,0.09
2013-5-3,73,58,44,61,52,41,93,80,60,30.01,29.79,21,6,30,0.18
2013-5-4,65,59,54,57,54,50,91,83,63,29.95,29.82,12,4,17,0.15
2013-5-5,66,58,53,56,52,50,93,82,59,29.96,29.86,7,2,13,0.03
2013-5-6,71,62,55,56,52,49,85,70,53,29.93,29.85,9,3,14,0.01
2013-5-7,75,64,54,57,52,44,82,65,46,29.97,29.89,8,2,14,0.00
2013-5-8,81,67,51,57,51,45,88,60,29,29.97,29.88,9,2,14,0.00
2013-5-9,71,63,59,62,57,51,93,82,65,29.94,29.77,14,6,23,0.88
2013-5-10,66,56,47,60,52,-100,93,89,82,29.91,29.75,12,8,21,0.31
2013-5-11,64,52,43,54,41,-100,93,72,35,30.02,29.85,23,9,32,0.00
2013-5-12,57,48,37,35,31,26,80,55,30,30.11,30.02,15,7,25,0.00
2013-5-13,67,54,37,42,32,23,82,50,20,30.16,30.03,12,4,20,0.00
2013-5-14,87,69,52,62,52,39,75,56,40,30.03,29.68,21,12,28,0.00
2013-5-15,88,77,67,62,57,53,74,52,37,29.78,29.70,19,10,28,0.00
2013-5-16,84,69,63,61,38,-100,82,57,28,29.88,29.73,13,3,19,0.00
2013-5-17,81,71,61,65,55,-100,91,68,38,29.94,29.87,13,5,20,0.00
2013-5-18,79,70,61,64,61,57,91,74,57,29.97,29.86,10,3,15,0.00
2013-5-19,90,76,60,70,64,57,92,69,43,29.89,29.71,18,7,25,0.00
2013-5-20,89,78,70,70,65,58,87,64,39,29.80,29.66,25,13,32,0.00
2013-5-21,83,72,63,69,64,59,90,75,52,29.73,29.62,21,13,30,0.35
2013-5-22,75,68,63,65,60,56,89,76,53,29.72,29.57,18,10,27,0.16
2013-5-23,63,55,43,57,50,36,90,82,73,30.20,29.72,17,9,26,0.02
2013-5-24,66,52,37,41,37,33,87,61,31,30.36,30.19,9,4,15,0.01
2013-5-25,63,53,43,51,39,28,88,61,28,30.35,30.17,7,1,11,0.12
2013-5-26,66,58,51,56,51,45,89,78,67,30.23,30.02,13,4,18,0.12
2013-5-27,78,64,57,69,60,55,93,87,72,30.05,29.78,23,7,33,0.62
2013-5-28,79,71,64,71,65,60,91,82,73,29.84,29.73,26,12,33,0.16
2013-5-29,86,76,65,69,64,60,87,69,48,29.90,29.82,21,12,29,0.00
2013-5-30,87,77,66,69,66,62,88,70,50,29.90,29.78,29,16,38,0.17
2013-5-31,76,71,64,71,66,61,91,86,79,29.86,29.71,22,12,47,0.43
2013-6-1,73,67,62,67,63,59,93,87,79,29.80,29.62,20,11,27,0.46
2013-6-2,65,60,52,60,56,49,91,87,77,29.98,29.73,11,7,17,0.04
2013-6-3,67,57,47,51,48,45,92,72,49,30.06,29.96,6,1,11,0.01
2013-6-4,73,63,50,55,52,46,91,69,45,30.08,29.98,12,1,16,0.01
2013-6-5,78,68,56,61,56,52,87,69,48,29.99,29.80,6,0,10,0.01
2013-6-6,79,68,60,60,56,51,80,65,48,29.80,29.72,12,3,18,0.00
2013-6-7,72,63,56,61,55,47,87,76,55,29.85,29.77,8,4,11,0.00
2013-6-8,79,66,51,57,51,44,82,61,39,29.92,29.84,7,2,11,0.00
2013-6-9,82,72,63,65,59,54,91,67,39,29.92,29.73,15,8,33,0.00
2013-6-10,81,71,61,65,61,59,97,74,48,29.81,29.68,12,5,18,0.00
2013-6-11,86,75,62,70,64,58,89,70,47,29.89,29.75,15,4,22,0.00
2013-6-12,95,83,71,73,70,67,92,69,42,29.82,29.53,19,8,29,0.00
2013-6-13,85,72,62,72,60,49,93,69,36,29.93,29.54,16,8,24,0.03
2013-6-14,81,68,55,59,55,51,89,66,37,30.04,29.91,6,2,13,0.01
2013-6-15,83,73,65,68,62,57,89,69,46,30.01,29.83,22,6,29,0.00
2013-6-16,81,73,67,70,67,63,93,82,66,29.92,29.83,22,7,32,0.11
2013-6-17,86,76,64,71,65,58,98,72,42,29.88,29.79,7,2,12,0.01
2013-6-18,84,73,62,65,62,56,95,71,45,29.94,29.81,13,4,19,0.00
2013-6-19,83,71,57,64,60,54,93,70,49,30.03,29.93,5,1,17,0.00
2013-6-20,87,74,64,69,63,59,86,69,49,30.08,30.02,9,4,16,0.00
2013-6-22,74,72,70,69,67,64,88,85,81,30.01,29.91,13,7,18,0.02
2013-6-23,81,73,65,73,68,64,96,85,69,30.04,29.95,15,7,22,0.01
2013-6-24,86,74,65,76,69,64,96,87,68,30.07,29.88,12,4,17,0.48
2013-6-25,87,77,69,78,72,66,95,86,69,29.95,29.80,11,7,18,0.65
2013-6-26,82,77,71,74,72,69,95,86,78,29.80,29.67,13,6,21,0.25
2013-6-27,88,79,71,76,72,67,97,81,58,29.77,29.67,16,6,23,0.02
2013-6-28,83,74,66,68,64,59,93,74,45,29.71,29.58,18,8,25,0.07
2013-6-29,73,66,63,66,64,61,96,92,79,29.68,29.56,15,3,23,0.40
2013-6-30,75,67,62,64,62,58,97,84,62,29.88,29.67,12,5,19,0.27
2013-7-1,75,67,61,64,60,55,92,79,65,29.96,29.87,11,6,19,0.11
2013-7-2,66,62,60,62,59,56,95,89,77,30.00,29.93,7,4,14,0.13
2013-7-3,72,65,62,65,62,60,97,91,74,30.06,29.97,7,2,10,0.01
2013-7-4,77,68,59,65,61,57,95,80,60,30.09,30.01,7,2,12,0.00
2013-7-5,81,71,62,69,66,60,98,84,64,30.07,29.99,7,2,12,0.00
2013-7-6,76,70,67,71,68,66,97,92,79,30.03,29.96,7,2,12,0.00
2013-7-7,84,74,64,74,69,63,98,85,69,30.02,29.94,9,5,15,0.01
2013-7-8,86,76,71,75,72,69,93,86,67,30.04,29.93,11,6,19,0.01
2013-7-9,89,80,74,78,75,71,92,84,66,29.98,29.85,7,4,12,0.02
2013-7-10,83,75,66,77,69,-100,94,85,68,29.94,29.78,14,6,21,0.66
2013-7-11,78,68,59,65,61,56,95,78,54,30.03,29.94,7,3,13,0.18
2013-7-12,82,67,52,65,59,50,95,77,49,30.10,30.02,3,0,7,0.00
2013-7-13,82,71,58,68,63,56,95,78,57,30.10,30.03,2,0,7,0.00
2013-7-14,89,76,63,76,70,61,95,80,59,30.14,30.06,5,1,10,0.00
2013-7-15,86,78,70,77,73,68,97,84,66,30.22,30.13,8,2,13,0.00
2013-7-16,90,80,70,76,72,68,95,78,55,30.28,30.21,5,1,9,0.00
2013-7-17,91,81,70,79,73,68,95,78,55,30.29,30.14,4,0,8,0.00
2013-7-18,91,82,72,79,75,70,96,82,61,30.15,29.96,6,2,10,0.00
2013-7-19,91,80,74,78,74,72,94,84,63,29.96,29.78,10,4,16,0.00
2013-7-20,85,76,69,76,71,-100,96,85,61,29.88,29.77,7,2,13,0.20
2013-7-21,77,72,66,73,69,65,98,92,82,29.91,29.81,6,2,10,0.01
2013-7-22,84,74,67,73,70,66,97,86,65,29.83,29.73,5,1,11,0.22
2013-7-23,81,73,61,73,67,57,96,83,63,29.90,29.70,13,5,20,0.05
2013-7-24,73,63,52,60,54,50,93,75,51,30.01,29.89,6,2,11,0.01
2013-7-25,78,62,49,60,54,47,96,77,45,30.09,30.01,4,0,6,0.00
2013-7-29,76,69,61,60,57,56,88,69,50,30.13,30.09,0,0,5,0.02
2013-7-30,69,66,60,67,62,55,96,89,80,30.14,30.02,5,1,10,0.20
2013-7-31,74,69,63,71,67,62,98,95,87,30.02,29.92,7,2,13,0.01
2013-8-1,79,69,60,68,61,57,98,78,51,29.98,29.92,11,4,19,0.01
2013-8-2,81,70,60,72,65,57,95,84,70,29.95,29.86,11,4,18,0.13
2013-8-3,80,72,61,69,65,57,98,81,55,30.06,29.90,9,3,14,0.33
2013-8-4,80,68,56,64,59,54,95,76,52,30.12,30.06,2,0,5,0.03
2013-8-5,76,69,59,65,62,57,94,78,59,30.08,29.86,6,2,13,0.00
2013-8-6,81,72,67,72,68,64,95,87,73,29.89,29.82,5,2,10,0.00
2013-8-7,81,74,68,75,71,67,97,92,81,29.86,29.79,7,3,12,0.00
2013-8-8,78,72,66,72,68,61,97,90,82,29.92,29.85,5,1,10,0.00
2013-8-9,82,70,59,67,62,57,96,77,48,30.01,29.91,6,1,10,0.00
2013-8-10,82,72,62,69,64,58,96,78,51,30.07,30.01,7,2,12,0.00
2013-8-11,82,70,55,68,61,54,97,75,49,30.09,30.02,7,1,12,0.00
2013-8-12,82,72,63,71,66,61,95,82,60,30.04,29.83,5,2,19,0.12
2013-8-13,73,65,52,66,56,-100,97,79,53,30.10,29.85,11,4,16,0.12
2013-8-14,70,56,46,57,48,-100,96,79,56,30.19,30.10,4,0,8,0.01
2013-8-15,74,55,47,57,36,-100,96,71,45,30.17,30.07,4,0,8,0.01
2013-8-16,77,64,58,59,52,-100,92,71,46,30.14,30.09,3,0,6,0.00
2013-8-17,80,65,54,61,55,-100,95,74,46,30.18,30.10,3,0,10,0.00
2013-8-18,84,69,55,67,61,53,95,78,51,30.15,30.05,4,1,8,0.00
2013-8-19,84,66,58,69,51,-100,97,77,53,30.10,30.01,5,1,9,0.00
2013-8-20,86,72,61,70,63,-100,94,78,55,30.09,30.01,7,1,12,0.00
2013-8-21,88,75,65,71,68,64,96,80,51,30.08,29.97,6,2,12,0.00
2013-8-22,82,73,68,71,67,65,93,83,64,30.08,29.96,11,3,19,0.00
2013-8-23,83,71,61,69,65,60,98,83,56,30.10,30.03,4,0,8,0.00
2013-8-24,86,71,58,65,59,-100,96,72,45,30.21,30.10,6,1,10,0.00
2013-8-25,88,73,60,67,62,56,88,69,43,30.24,30.14,6,2,11,0.00
2013-8-26,89,76,64,74,68,60,94,78,52,30.16,30.00,6,3,12,0.00
2013-8-27,91,78,71,76,72,69,95,82,57,30.01,29.91,8,5,17,0.00
2013-8-28,92,85,71,77,74,69,92,70,58,29.95,29.86,8,4,15,0.00
2013-8-29,89,76,70,73,70,65,96,85,54,30.02,29.93,2,0,7,0.00
2013-8-30,95,78,63,78,70,62,97,80,53,29.93,29.75,11,2,19,0.15
2013-8-31,94,74,64,78,67,-100,96,82,60,29.80,29.65,9,2,22,0.41
2013-9-1,80,71,65,73,69,64,98,93,77,29.77,29.71,5,1,9,0.37
2013-9-2,82,71,62,69,64,60,97,81,51,29.92,29.73,8,4,14,0.00
2013-9-3,75,64,51,60,57,50,98,80,54,30.05,29.92,5,1,11,0.01
2013-9-4,83,66,52,63,58,50,97,76,46,30.13,30.02,7,1,13,0.01
2013-9-5,85,71,59,67,62,56,94,75,50,30.16,30.09,5,0,11,0.00
2013-9-6,86,71,58,68,62,55,92,75,52,30.16,30.00,6,1,11,0.00
2013-9-7,88,73,64,69,63,-100,94,76,46,30.01,29.88,9,2,20,0.02
2013-9-8,86,74,65,74,69,63,96,85,63,29.93,29.86,5,1,8,0.14
2013-9-9,95,80,68,77,71,66,98,77,46,29.91,29.82,10,4,17,0.01
2013-9-10,97,82,71,73,70,65,95,72,37,30.02,29.90,9,4,17,0.00
2013-9-11,95,82,70,72,67,62,95,65,34,30.05,29.94,10,5,20,0.00
2013-9-12,85,72,60,70,63,52,96,75,36,29.99,29.86,16,4,25,0.17
2013-9-13,69,59,49,57,51,45,97,76,46,30.10,29.99,13,4,20,0.01
2013-9-14,72,56,38,47,39,-100,97,62,25,30.17,30.04,6,1,10,0.00
2013-9-15,77,60,48,61,52,43,96,79,40,30.06,29.95,8,1,18,0.06
2013-9-16,67,59,50,59,54,47,96,84,63,30.27,30.06,6,1,12,0.07
2013-9-17,73,60,45,56,51,43,96,76,50,30.28,30.08,7,1,15,0.01
2013-9-18,71,62,60,68,57,56,91,84,79,30.08,29.94,7,1,13,0.00
2013-9-19,92,78,70,73,70,67,96,79,48,29.96,29.79,10,6,19,0.04
2013-9-20,76,69,57,71,65,53,96,88,80,29.83,29.75,9,4,15,0.45
2013-9-21,70,58,50,53,48,-100,96,74,45,29.91,29.78,12,4,18,0.01
2013-9-22,73,56,42,51,47,41,97,75,44,30.01,29.90,3,0,10,0.00
2013-9-23,74,57,42,51,46,40,96,70,39,30.06,29.97,5,0,12,0.00
2013-9-24,77,60,44,59,51,42,96,74,48,30.01,29.84,6,0,12,0.00
2013-9-25,80,65,53,60,54,49,87,70,48,29.89,29.83,5,0,10,0.00
2013-9-26,81,63,49,55,50,47,94,67,31,30.03,29.90,5,0,10,0.00
2013-9-27,82,65,47,57,52,45,94,66,35,30.12,30.02,9,2,14,0.00
2013-9-28,84,70,53,61,54,-100,93,61,39,30.06,29.92,12,5,22,0.00
2013-9-29,73,63,51,61,54,47,94,73,45,29.99,29.91,9,3,16,0.11
2013-9-30,78,61,46,59,54,44,97,80,49,29.98,29.86,7,2,16,0.01
2013-10-1,71,66,64,66,64,63,95,91,83,29.97,29.94,4,1,8,0.00
2013-10-2,73,68,63,68,66,62,98,93,84,30.04,29.96,6,2,11,0.01
2013-10-3,86,73,64,70,66,62,97,82,55,29.97,29.84,9,5,20,0.32
2013-10-4,87,74,64,71,67,62,94,82,54,29.95,29.88,9,5,16,0.17
2013-10-5,81,72,67,72,69,65,97,90,70,29.93,29.79,13,6,22,0.59
2013-10-6,59,51,47,49,43,39,86,76,65,29.79,29.75,10,5,17,0.19
2013-10-7,68,52,43,50,46,41,96,80,45,30.10,29.78,0,0,0,0.02
2013-10-8,75,60,46,52,48,43,92,68,38,30.20,30.09,0,0,0,0.00
2013-10-9,73,58,43,50,46,41,94,68,38,30.20,30.10,0,0,0,0.00
2013-10-10,77,62,47,59,52,45,94,73,46,30.14,30.01,0,0,0,0.00
2013-10-11,78,63,52,57,54,49,95,74,45,30.05,29.93,0,0,0,0.00
2013-10-12,76,63,52,64,54,-100,87,76,59,30.14,29.96,0,0,0,0.00
2013-10-13,69,54,41,46,38,31,91,60,26,30.36,30.14,0,0,0,0.00
2013-10-14,68,52,38,46,40,36,93,68,36,30.35,30.12,0,0,0,0.00
2013-10-15,64,59,49,62,55,43,96,87,73,30.11,29.82,0,0,0,0.04
2013-10-16,55,50,42,53,45,40,93,84,69,29.96,29.87,0,0,0,0.01
2013-10-17,57,48,42,47,42,38,95,83,54,29.95,29.86,0,0,0,0.04
2013-10-18,55,47,41,47,41,38,92,82,67,29.98,29.89,0,0,0,0.02
2013-10-19,55,46,40,42,37,-100,94,75,48,29.96,29.85,0,0,0,0.22
2013-10-20,67,53,39,45,41,35,88,65,41,29.91,29.79,0,0,0,0.03
2013-10-21,54,46,31,45,38,24,89,75,51,30.01,29.85,0,0,0,0.00
2013-10-22,48,37,28,40,32,24,95,83,57,30.02,29.84,0,0,0,0.42
2013-10-23,43,38,32,37,33,30,96,84,63,30.07,29.88,0,0,0,0.16
2013-10-24,41,37,33,34,31,26,94,78,58,30.32,30.06,0,0,0,0.04
2013-10-25,50,42,25,32,29,22,91,63,44,30.46,30.18,0,0,0,0.00
2013-10-26,57,44,34,41,32,-100,83,65,43,30.18,29.91,0,0,0,0.00
2013-10-27,56,41,28,35,30,24,92,67,37,30.10,30.01,0,0,0,0.00
2013-10-28,62,45,31,39,30,-100,88,63,34,30.29,30.06,0,0,0,0.00
2013-10-29,56,46,35,49,42,33,95,86,69,30.30,30.13,0,0,0,0.02
2013-10-30,65,57,50,64,56,49,98,96,93,30.12,29.83,0,0,0,0.05
2013-10-31,64,60,48,62,59,46,97,95,92,29.83,29.27,0,0,0,1.76
2013-11-1,52,48,44,47,44,42,96,88,75,29.77,29.46,0,0,0,0.01
2013-11-2,47,42,35,43,37,-100,96,87,76,30.14,29.76,0,0,0,0.00
2013-11-3,53,41,31,40,34,29,95,79,51,30.31,30.13,0,0,0,0.00
2013-11-4,57,49,43,45,41,36,81,74,59,30.26,30.15,0,0,0,0.00
2013-11-11,51,39,28,43,35,24,95,84,69,30.43,30.09,0,0,0,0.03
2013-11-12,32,25,20,26,20,16,95,84,71,30.70,30.44,0,0,0,0.01
2013-11-13,38,27,17,26,21,14,91,79,58,30.66,30.29,0,0,0,0.00
2013-11-14,51,38,27,31,26,22,83,65,39,30.29,30.03,0,0,0,0.00
2013-11-15,52,44,37,39,33,29,90,67,50,30.05,29.96,0,0,0,0.00
2013-11-16,61,52,43,58,48,-100,96,88,75,29.98,29.65,0,0,0,0.06
2013-11-17,68,63,59,65,61,57,96,93,89,29.62,29.25,0,0,0,0.07
2013-11-18,35,31,27,29,27,24,88,85,79,30.23,30.14,0,0,0,0.09
2013-11-19,42,32,24,31,27,22,93,83,63,30.36,30.23,0,0,0,0.03
2013-11-20,44,36,28,39,31,25,90,81,67,30.29,30.11,0,0,0,0.01
2013-11-21,48,46,45,47,41,-100,97,89,76,30.17,30.11,0,0,0,0.53
2013-11-22,47,39,29,46,37,27,98,93,87,30.47,30.15,0,0,0,0.06
2013-11-23,28,23,15,27,16,-100,94,78,66,30.71,30.44,0,0,0,0.01
2013-11-24,27,17,9,14,9,6,87,71,42,30.76,30.55,5,1,9,0.00
2013-12-14,32,29,23,31,27,-100,97,94,91,30.06,29.81,18,7,25,0.07
2013-12-15,23,18,11,21,15,8,98,88,84,30.14,30.01,17,10,22,0.01
2013-12-16,23,18,14,22,16,12,99,92,88,30.14,30.03,9,4,12,0.00
2013-12-17,26,21,15,25,20,11,96,93,84,30.18,30.05,13,7,16,0.00
2013-12-18,35,20,8,30,16,5,89,84,77,30.24,29.94,22,13,29,0.00
2013-12-19,39,37,32,38,34,28,96,91,84,29.96,29.80,18,13,23,0.17
2013-12-20,55,43,34,54,42,32,98,97,96,29.81,29.68,15,9,22,0.15
2013-12-30,18,14,9,14,9,5,92,80,72,30.35,30.18,15,6,19,0.00
2013-12-31,28,20,13,21,15,10,89,81,68,30.42,30.21,12,6,15,0.00
2014-1-1,31,24,19,26,21,17,93,88,82,30.24,30.09,11,6,15,0.00
2014-1-2,18,13,-2,16,10,-5,92,89,84,30.44,30.04,17,11,24,0.00